Time;durP1;ratioP1;P1;durP2;ratioP2;P2;SDS_P1;SDS_P2;PMS_P1;PMS_P2;Temp;Humidity;BMP_temperature;BMP_pressure;BME280_temperature;BME280_humidity;BME280_pressure;Samples;Min_cycle;Max_cycle;Signal;HPM_P1;HPM_P2
2022/04/17 00:00:30;;;;;;;9.30;4.13;;;5.90;99.90;;;;;;5069471;28;20459;-53
2022/04/17 00:02:56;;;;;;;8.80;4.20;;;5.80;99.90;;;;;;5068503;28;20940;-52
2022/04/17 00:05:22;;;;;;;7.45;3.50;;;5.80;99.90;;;;;;5069762;28;20372;-52
2022/04/17 00:07:49;;;;;;;8.60;3.50;;;5.90;99.90;;;;;;5069081;28;20458;-52
2022/04/17 00:10:14;;;;;;;9.00;3.80;;;6.00;99.90;;;;;;5069223;28;20415;-52
2022/04/17 00:12:41;;;;;;;8.05;3.95;;;6.00;99.90;;;;;;5068902;28;20379;-50
2022/04/17 00:15:09;;;;;;;8.80;3.60;;;5.10;99.90;;;;;;5067420;28;20486;-50
2022/04/17 00:17:41;;;;;;;8.48;3.70;;;6.10;99.90;;;;;;5068878;28;20441;-50
2022/04/17 00:20:09;;;;;;;8.00;3.50;;;6.10;99.90;;;;;;5069430;28;20877;-50
2022/04/17 00:22:34;;;;;;;9.57;3.65;;;6.20;99.90;;;;;;5069675;28;20416;-50
2022/04/17 00:25:01;;;;;;;8.10;3.30;;;6.30;99.90;;;;;;5068588;28;20410;-51
2022/04/17 00:27:27;;;;;;;7.10;3.53;;;6.30;99.90;;;;;;5069732;28;20376;-51
2022/04/17 00:29:53;;;;;;;8.68;3.20;;;6.30;99.90;;;;;;5068573;28;20418;-50
2022/04/17 00:32:19;;;;;;;8.00;3.20;;;6.30;99.90;;;;;;5068870;28;20399;-51
2022/04/17 00:34:45;;;;;;;8.02;3.35;;;6.30;99.90;;;;;;5068700;28;20741;-51
2022/04/17 00:37:11;;;;;;;8.90;3.20;;;6.20;99.90;;;;;;5069312;28;21231;-51
2022/04/17 00:39:37;;;;;;;7.70;3.17;;;6.20;99.90;;;;;;5069216;28;20421;-52
2022/04/17 00:42:06;;;;;;;7.70;3.38;;;6.20;99.90;;;;;;5069148;28;20380;-52
2022/04/17 00:44:32;;;;;;;7.70;3.30;;;6.10;99.90;;;;;;5069395;28;20384;-52
2022/04/17 00:46:58;;;;;;;7.43;3.50;;;6.10;99.90;;;;;;5068669;28;20549;-52
2022/04/17 00:49:24;;;;;;;7.70;3.22;;;6.10;99.90;;;;;;5069331;28;20931;-52
2022/04/17 00:51:50;;;;;;;7.10;3.50;;;6.10;99.90;;;;;;5068296;28;20897;-51
2022/04/17 00:54:19;;;;;;;9.50;3.30;;;6.10;99.90;;;;;;5069405;28;20508;-52
2022/04/17 00:56:46;;;;;;;7.50;3.30;;;6.20;99.90;;;;;;5068710;28;20390;-51
2022/04/17 00:59:13;;;;;;;8.70;3.77;;;6.20;99.90;;;;;;5069154;28;20458;-52
2022/04/17 01:01:39;;;;;;;8.40;3.40;;;6.10;99.90;;;;;;5068885;28;20384;-52
2022/04/17 01:04:06;;;;;;;7.93;3.45;;;6.10;99.90;;;;;;5051179;28;20773;-52
2022/04/17 01:06:33;;;;;;;7.60;3.20;;;6.00;99.90;;;;;;5069269;28;20390;-51
2022/04/17 01:08:59;;;;;;;8.57;3.70;;;6.10;99.90;;;;;;5068188;28;20372;-52
2022/04/17 01:11:26;;;;;;;9.85;3.40;;;6.10;99.90;;;;;;5068567;28;20756;-51
2022/04/17 01:13:55;;;;;;;7.45;3.20;;;6.10;99.90;;;;;;5069243;28;20441;-52
2022/04/17 01:16:23;;;;;;;8.00;3.22;;;6.10;99.90;;;;;;5072699;28;20375;-52
2022/04/17 01:19:00;;;;;;;6.85;3.28;;;6.10;99.90;;;;;;5072019;28;20437;-51
2022/04/17 01:21:27;;;;;;;6.73;3.50;;;6.10;99.90;;;;;;5072899;28;20419;-52
2022/04/17 01:29:27;;;;;;;6.40;3.10;;;6.00;99.90;;;;;;5072740;28;20444;-51
2022/04/17 01:31:53;;;;;;;7.35;3.45;;;5.90;99.90;;;;;;5053882;28;20813;-51
2022/04/17 01:34:20;;;;;;;8.10;3.70;;;5.80;99.90;;;;;;5072634;28;20736;-51
2022/04/17 01:36:48;;;;;;;8.98;3.70;;;5.80;99.90;;;;;;5071569;28;20383;-51
2022/04/17 01:39:13;;;;;;;7.45;3.50;;;5.70;99.90;;;;;;5072325;28;20380;-52
2022/04/17 01:41:40;;;;;;;8.90;3.83;;;5.70;99.90;;;;;;5071731;28;20383;-51
2022/04/17 01:44:06;;;;;;;7.43;3.33;;;5.60;99.90;;;;;;5072334;28;20383;-51
2022/04/17 01:46:33;;;;;;;8.35;4.07;;;5.50;99.90;;;;;;5071822;28;20784;-51
2022/04/17 01:48:59;;;;;;;7.73;3.80;;;5.50;99.90;;;;;;5070966;28;21013;-51
2022/04/17 01:51:25;;;;;;;7.97;4.13;;;5.40;99.90;;;;;;5071595;28;20418;-52
2022/04/17 01:53:50;;;;;;;8.40;3.47;;;5.40;99.90;;;;;;5071152;28;20451;-51
2022/04/17 01:56:16;;;;;;;10.40;3.60;;;5.30;99.90;;;;;;5071985;28;20376;-51
2022/04/17 01:58:42;;;;;;;7.93;3.63;;;5.30;99.90;;;;;;5071135;28;20446;-51
2022/04/17 02:01:08;;;;;;;7.30;3.50;;;5.30;99.90;;;;;;5071798;28;20387;-51
2022/04/17 02:03:34;;;;;;;8.10;3.20;;;5.40;99.90;;;;;;5071628;28;20379;-52
2022/04/17 02:06:02;;;;;;;8.70;3.70;;;5.30;99.90;;;;;;5070817;28;20437;-52
2022/04/17 02:08:29;;;;;;;6.87;3.30;;;5.30;99.90;;;;;;5071552;28;20845;-51
2022/04/17 02:10:56;;;;;;;7.80;3.00;;;5.30;99.90;;;;;;5071119;28;20431;-51
2022/04/17 02:13:23;;;;;;;7.05;3.25;;;5.40;99.90;;;;;;5071615;28;20384;-52
2022/04/17 02:15:49;;;;;;;6.53;3.20;;;5.30;99.90;;;;;;5070822;28;20387;-51
2022/04/17 02:18:16;;;;;;;7.78;3.10;;;5.40;99.90;;;;;;5071596;28;20429;-51
2022/04/17 02:20:42;;;;;;;7.30;3.22;;;5.40;99.90;;;;;;5070746;28;20426;-51
2022/04/17 02:23:07;;;;;;;7.68;3.60;;;5.40;99.90;;;;;;5071063;28;20733;-51
2022/04/17 02:25:33;;;;;;;8.48;3.70;;;5.40;99.90;;;;;;5070315;28;20468;-52
2022/04/17 02:27:59;;;;;;;7.80;3.50;;;5.40;99.90;;;;;;5070692;28;20372;-51
2022/04/17 02:30:25;;;;;;;6.70;3.20;;;5.30;99.90;;;;;;5040184;28;20417;-51
2022/04/17 02:32:50;;;;;;;7.67;3.50;;;5.40;99.90;;;;;;5049703;28;20386;-51
2022/04/17 02:35:17;;;;;;;8.20;3.77;;;5.30;99.90;;;;;;5051269;28;20473;-51
2022/04/17 02:37:43;;;;;;;8.03;3.17;;;5.30;99.90;;;;;;5050711;28;20423;-51
2022/04/17 02:40:09;;;;;;;8.90;3.30;;;5.30;99.90;;;;;;5051137;28;20445;-51
2022/04/17 02:42:34;;;;;;;8.27;3.25;;;5.20;99.90;;;;;;5051043;28;20395;-51
2022/04/17 02:45:00;;;;;;;7.40;3.30;;;5.20;99.90;;;;;;5032206;28;20377;-51
2022/04/17 02:47:45;;;;;;;7.50;3.50;;;5.20;99.90;;;;;;5050959;28;20385;-52
2022/04/17 02:50:12;;;;;;;7.95;3.50;;;5.20;99.90;;;;;;5051041;28;20417;-51
2022/04/17 02:52:38;;;;;;;7.13;3.63;;;5.10;99.90;;;;;;5050944;28;20412;-52
2022/04/17 02:55:05;;;;;;;10.10;3.63;;;5.10;99.90;;;;;;5049961;28;20381;-51
2022/04/17 02:57:31;;;;;;;8.93;3.95;;;5.00;99.90;;;;;;5051004;28;20850;-51
2022/04/17 02:59:57;;;;;;;8.10;3.50;;;4.90;99.90;;;;;;5050114;28;20397;-51
2022/04/17 03:07:53;;;;;;;7.68;3.97;;;4.80;99.90;;;;;;5049943;28;20916;-51
2022/04/17 03:10:19;;;;;;;9.00;3.70;;;4.80;99.90;;;;;;5050321;28;20405;-51
2022/04/17 03:12:44;;;;;;;7.93;3.63;;;4.80;99.90;;;;;;5049556;28;20980;-52
2022/04/17 03:15:10;;;;;;;7.93;4.07;;;4.90;99.90;;;;;;5050252;28;20385;-52
2022/04/17 03:17:37;;;;;;;8.35;3.95;;;4.80;99.90;;;;;;5050493;28;20385;-52
2022/04/17 03:20:04;;;;;;;9.02;3.95;;;4.90;99.90;;;;;;5049447;28;21017;-52
2022/04/17 03:22:32;;;;;;;7.13;3.38;;;4.90;99.90;;;;;;5068984;28;20861;-52
2022/04/17 03:25:00;;;;;;;8.30;3.53;;;4.90;99.90;;;;;;5069672;28;20380;-52
2022/04/17 03:27:26;;;;;;;9.55;4.10;;;5.00;99.90;;;;;;5070158;28;20545;-52
2022/04/17 03:29:51;;;;;;;8.50;3.83;;;5.00;99.90;;;;;;5069187;28;20936;-52
2022/04/17 03:32:17;;;;;;;9.57;4.00;;;5.00;99.90;;;;;;5070178;28;20384;-52
2022/04/17 03:34:43;;;;;;;9.02;3.90;;;5.00;99.90;;;;;;5069483;28;20458;-52
2022/04/17 03:37:08;;;;;;;9.30;4.30;;;5.00;99.90;;;;;;5069584;28;20392;-52
2022/04/17 03:39:34;;;;;;;7.60;3.87;;;4.90;99.90;;;;;;5070026;28;20473;-52
2022/04/17 03:42:00;;;;;;;9.45;3.80;;;4.90;99.90;;;;;;5069215;28;21068;-52
2022/04/17 03:44:26;;;;;;;10.25;3.97;;;5.00;99.90;;;;;;5069918;28;20902;-52
2022/04/17 03:46:52;;;;;;;7.93;3.90;;;4.90;99.90;;;;;;5069120;28;20379;-52
2022/04/17 03:49:18;;;;;;;7.37;3.60;;;5.00;99.90;;;;;;5069488;28;20423;-52
2022/04/17 03:51:44;;;;;;;8.60;3.80;;;5.00;99.90;;;;;;5068964;28;20447;-52
2022/04/17 03:54:10;;;;;;;7.82;3.60;;;5.00;99.90;;;;;;5069324;28;20407;-53
2022/04/17 03:56:36;;;;;;;7.03;3.80;;;4.90;99.90;;;;;;5069568;28;20463;-52
2022/04/17 03:59:03;;;;;;;9.35;4.10;;;4.90;99.90;;;;;;5068708;28;20837;-52
2022/04/17 04:01:30;;;;;;;8.45;4.28;;;4.90;99.90;;;;;;5051664;28;20427;-53
2022/04/17 04:03:56;;;;;;;8.80;3.95;;;4.80;99.90;;;;;;5068537;28;20383;-52
2022/04/17 04:06:22;;;;;;;9.88;4.47;;;4.90;99.90;;;;;;5069314;28;20390;-53
2022/04/17 04:08:49;;;;;;;9.30;4.35;;;4.90;99.90;;;;;;5068643;28;20402;-52
2022/04/17 04:11:15;;;;;;;8.13;4.20;;;4.90;99.90;;;;;;5069348;28;20399;-53
2022/04/17 04:13:43;;;;;;;844.33;268.17;;;4.80;99.90;;;;;;5069824;28;20415;-53
2022/04/17 04:16:10;;;;;;;144.90;65.72;;;4.80;99.90;;;;;;5069065;28;20371;-52
2022/04/17 04:18:35;;;;;;;27.20;12.18;;;3.80;99.90;;;;;;5069469;28;20454;-52
2022/04/17 04:21:01;;;;;;;12.63;7.28;;;4.70;99.90;;;;;;5068450;28;21102;-52
2022/04/17 04:23:30;;;;;;;14.40;9.40;;;4.70;99.90;;;;;;5069480;28;20379;-52
2022/04/17 04:25:56;;;;;;;17.67;14.70;;;4.70;99.90;;;;;;5068617;28;20407;-52
2022/04/17 04:28:34;;;;;;;11.70;6.53;;;4.80;99.90;;;;;;5051760;28;20911;-52
2022/04/17 04:31:00;;;;;;;13.07;9.20;;;4.90;99.90;;;;;;5067281;28;20415;-52
2022/04/17 04:33:26;;;;;;;12.20;8.43;;;4.90;99.90;;;;;;5069781;28;20382;-52
2022/04/17 04:35:52;;;;;;;13.40;9.30;;;4.90;99.90;;;;;;5068534;28;20478;-52
2022/04/17 04:38:17;;;;;;;10.73;6.30;;;4.90;99.90;;;;;;5069347;28;20411;-52
2022/04/17 04:40:43;;;;;;;9.10;4.73;;;4.90;99.90;;;;;;5069041;28;20379;-52
2022/04/17 04:43:09;;;;;;;10.75;5.28;;;4.90;99.90;;;;;;5069100;28;20380;-53
2022/04/17 04:49:29;;;;;;;10.43;4.90;;;5.00;99.90;;;;;;5068522;28;20383;-52
2022/04/17 04:51:05;;;;;;;8.63;4.60;;;5.00;99.90;;;;;;5070204;28;20442;-52
2022/04/17 04:53:30;;;;;;;8.65;4.00;;;5.20;99.90;;;;;;5073017;28;20380;-53
2022/04/17 04:55:56;;;;;;;7.50;4.10;;;5.50;99.90;;;;;;5071679;28;20881;-52
2022/04/17 04:58:22;;;;;;;10.70;4.70;;;5.70;99.90;;;;;;5072914;28;20462;-50
2022/04/17 05:00:47;;;;;;;8.18;4.15;;;5.90;99.90;;;;;;5072076;28;20872;-50
2022/04/17 05:03:13;;;;;;;8.40;3.50;;;6.00;99.90;;;;;;5073052;28;20372;-50
2022/04/17 05:05:39;;;;;;;9.80;4.57;;;6.10;99.90;;;;;;5073072;28;20379;-50
2022/04/17 05:08:05;;;;;;;9.90;4.35;;;6.10;99.90;;;;;;5071981;28;20376;-50
2022/04/17 05:10:30;;;;;;;8.10;3.90;;;6.00;99.90;;;;;;5072244;28;20411;-50
2022/04/17 05:12:56;;;;;;;10.13;4.30;;;5.80;99.90;;;;;;5071685;28;20844;-51
2022/04/17 05:15:25;;;;;;;8.02;3.72;;;5.80;99.90;;;;;;5072499;28;20380;-52
2022/04/17 05:17:50;;;;;;;7.82;3.97;;;5.90;99.90;;;;;;5071565;28;20480;-51
2022/04/17 05:20:16;;;;;;;8.40;3.90;;;5.80;99.90;;;;;;5072738;28;20486;-52
2022/04/17 05:22:44;;;;;;;8.50;3.70;;;5.80;99.90;;;;;;5072516;28;20396;-52
2022/04/17 05:25:10;;;;;;;9.48;3.78;;;5.90;99.90;;;;;;5072179;28;20525;-52
2022/04/17 05:27:35;;;;;;;7.17;3.80;;;6.30;99.90;;;;;;5072718;28;20459;-52
2022/04/17 05:30:01;;;;;;;9.02;4.10;;;6.90;99.90;;;;;;5071333;28;20417;-52
2022/04/17 05:32:28;;;;;;;8.43;3.80;;;7.20;99.90;;;;;;5072522;28;20522;-52
2022/04/17 05:34:54;;;;;;;7.97;3.70;;;7.40;99.90;;;;;;5071140;28;20391;-52
2022/04/17 05:37:19;;;;;;;7.90;3.60;;;7.60;99.90;;;;;;5072510;28;20749;-52
2022/04/17 05:39:45;;;;;;;8.60;3.97;;;7.90;99.90;;;;;;5071741;28;20872;-53
2022/04/17 05:42:12;;;;;;;7.15;3.53;;;8.50;99.90;;;;;;5072307;28;20824;-54
2022/04/17 05:44:38;;;;;;;8.93;3.80;;;9.10;99.90;;;;;;5072331;28;20471;-53
2022/04/17 05:47:04;;;;;;;9.33;3.90;;;9.70;99.90;;;;;;5076271;28;20477;-53
2022/04/17 05:49:30;;;;;;;8.52;4.20;;;10.40;99.90;;;;;;5091624;28;20386;-52
2022/04/17 05:51:57;;;;;;;8.00;4.10;;;10.90;99.90;;;;;;5086900;28;20489;-51
2022/04/17 05:54:23;;;;;;;8.23;3.67;;;11.50;99.90;;;;;;5091359;28;20477;-51
2022/04/17 05:56:49;;;;;;;7.40;3.60;;;11.90;99.90;;;;;;5052490;28;20441;-54
2022/04/17 05:59:15;;;;;;;6.80;3.40;;;13.00;99.90;;;;;;5086861;28;20382;-54
2022/04/17 06:01:40;;;;;;;7.80;3.10;;;14.50;99.90;;;;;;5076151;28;20432;-54
2022/04/17 06:04:06;;;;;;;7.75;3.55;;;15.20;99.90;;;;;;5085847;28;20390;-52
2022/04/17 06:06:32;;;;;;;6.80;3.40;;;15.80;99.90;;;;;;5083021;28;20477;-54
2022/04/17 06:08:58;;;;;;;8.20;3.60;;;15.70;99.90;;;;;;5073247;28;20467;-51
2022/04/17 06:11:23;;;;;;;7.30;3.55;;;16.00;99.90;;;;;;5091724;28;20406;-51
2022/04/17 06:13:49;;;;;;;7.50;3.47;;;16.10;99.90;;;;;;5084719;28;20885;-53
2022/04/17 06:16:15;;;;;;;6.60;3.50;;;16.30;99.90;;;;;;5071257;28;20380;-53
2022/04/17 06:18:40;;;;;;;8.00;3.30;;;16.10;99.90;;;;;;5071407;28;20413;-53
2022/04/17 06:21:06;;;;;;;8.30;3.63;;;16.60;99.90;;;;;;5073807;28;20398;-53
2022/04/17 06:23:32;;;;;;;6.67;3.40;;;16.70;99.90;;;;;;5084783;28;20392;-54
2022/04/17 06:25:59;;;;;;;6.95;3.20;;;16.70;99.90;;;;;;5080732;28;20374;-53
2022/04/17 06:28:25;;;;;;;7.28;3.47;;;16.30;99.90;;;;;;5081569;28;20418;-53
2022/04/17 06:30:51;;;;;;;8.13;3.23;;;15.70;99.90;;;;;;5078467;28;20446;-53
2022/04/17 06:33:16;;;;;;;7.27;3.50;;;15.50;99.90;;;;;;5063526;28;20394;-53
2022/04/17 06:35:42;;;;;;;8.80;3.80;;;15.70;99.90;;;;;;5082709;28;20378;-54
2022/04/17 06:38:10;;;;;;;6.60;3.50;;;15.70;99.90;;;;;;5081144;28;20401;-53
2022/04/17 06:40:36;;;;;;;8.25;3.67;;;15.90;99.90;;;;;;5079930;28;20395;-54
2022/04/17 06:43:07;;;;;;;6.93;3.28;;;17.10;99.90;;;;;;5069964;28;20846;-51
2022/04/17 06:45:38;;;;;;;8.43;5.80;;;18.20;1.00;;;;;;5070883;28;20388;-54
2022/04/17 06:48:21;;;;;;;7.63;5.43;;;19.00;1.00;;;;;;5070315;28;20388;-52
2022/04/17 06:50:49;;;;;;;8.00;5.40;;;18.50;1.00;;;;;;5069588;28;20412;-52
2022/04/17 06:53:15;;;;;;;7.47;5.00;;;18.20;1.00;;;;;;5070516;28;20895;-52
2022/04/17 06:55:41;;;;;;;7.60;4.77;;;17.90;1.00;;;;;;5070769;28;20383;-51
2022/04/17 06:58:09;;;;;;;7.53;3.80;;;17.60;1.00;;;;;;5075371;28;20527;-51
2022/04/17 07:00:37;;;;;;;8.02;3.90;;;17.50;1.00;;;;;;5090524;28;20459;-53
2022/04/17 07:03:03;;;;;;;7.10;5.30;;;18.30;1.00;;;;;;5089035;28;20394;-53
2022/04/17 07:05:29;;;;;;;7.70;6.00;;;18.90;1.00;;;;;;5089659;28;20747;-53
2022/04/17 07:08:02;;;;;;;7.90;5.95;;;19.80;1.00;;;;;;5088103;28;20392;-54
2022/04/17 07:10:29;;;;;;;7.82;6.10;;;19.90;1.00;;;;;;5088993;28;20402;-54
2022/04/17 07:12:55;;;;;;;7.97;5.53;;;19.40;1.00;;;;;;5088108;28;20422;-53
2022/04/17 07:15:24;;;;;;;8.73;6.40;;;19.40;1.00;;;;;;5078747;28;20896;-53
2022/04/17 07:17:51;;;;;;;8.52;6.68;;;;;;;;;;5089525;28;20483;-53
2022/04/17 07:20:17;;;;;;;9.40;6.30;;;;;;;;;;5090172;28;20440;-54
2022/04/17 07:22:44;;;;;;;7.40;5.70;;;;;;;;;;5086081;28;20437;-54
2022/04/17 07:25:11;;;;;;;8.93;6.45;;;20.60;99.90;;;;;;5078122;28;20393;-54
2022/04/17 07:27:39;;;;;;;8.18;6.63;;;20.50;99.90;;;;;;5070090;28;20398;-54
2022/04/17 07:30:11;;;;;;;8.80;6.72;;;20.50;99.90;;;;;;5076239;28;20409;-56
2022/04/17 07:32:38;;;;;;;8.55;6.30;;;19.90;99.90;;;;;;5078802;28;20399;-55
2022/04/17 07:35:04;;;;;;;8.07;6.70;;;20.60;99.90;;;;;;5074128;28;20396;-54
2022/04/17 07:37:32;;;;;;;8.10;6.00;;;20.80;99.90;;;;;;5076303;28;20406;-54
2022/04/17 07:39:57;;;;;;;8.23;6.20;;;21.40;99.90;;;;;;5076418;28;20439;-54
2022/04/17 07:42:23;;;;;;;9.85;6.20;;;22.10;99.90;;;;;;5076247;28;20894;-55
2022/04/17 07:44:49;;;;;;;8.33;6.20;;;21.90;99.90;;;;;;5078027;28;20507;-54
2022/04/17 07:47:16;;;;;;;8.40;6.13;;;21.70;99.90;;;;;;5078191;28;20465;-54
2022/04/17 07:49:43;;;;;;;9.23;6.10;;;21.20;99.90;;;;;;5072566;28;20868;-55
2022/04/17 07:52:09;;;;;;;8.40;6.13;;;21.20;99.90;;;;;;5072486;28;21017;-55
2022/04/17 07:54:35;;;;;;;7.50;5.80;;;21.10;99.90;;;;;;5075030;28;21370;-54
2022/04/17 07:57:00;;;;;;;8.00;5.88;;;20.60;99.90;;;;;;5070910;28;20649;-54
2022/04/17 07:59:26;;;;;;;7.07;5.70;;;20.50;99.90;;;;;;5074860;28;21033;-55
2022/04/17 08:02:01;;;;;;;8.03;6.20;;;21.00;99.90;;;;;;5075008;28;20454;-54
2022/04/17 08:04:27;;;;;;;8.02;6.30;;;20.90;99.90;;;;;;5075574;28;20849;-55
2022/04/17 08:06:54;;;;;;;8.40;6.03;;;21.50;99.90;;;;;;5070233;28;20399;-54
2022/04/17 08:09:20;;;;;;;7.68;6.07;;;21.80;99.90;;;;;;5072560;28;20396;-55
2022/04/17 08:11:51;;;;;;;7.55;6.10;;;21.80;99.90;;;;;;5076457;28;20444;-54
2022/04/17 08:14:21;;;;;;;7.03;5.82;;;21.70;99.90;;;;;;5073571;28;20403;-54
2022/04/17 08:16:47;;;;;;;10.10;6.80;;;20.50;99.90;;;;;;5068828;28;20528;-54
2022/04/17 08:19:13;;;;;;;8.40;6.38;;;20.00;99.90;;;;;;5070840;28;20799;-53
2022/04/17 08:21:40;;;;;;;7.87;5.80;;;20.20;99.90;;;;;;5060664;28;20580;-55
2022/04/17 08:24:06;;;;;;;8.40;5.95;;;20.70;99.90;;;;;;5059325;28;20396;-54
2022/04/17 08:26:32;;;;;;;8.20;5.97;;;20.00;99.90;;;;;;5058904;28;20453;-54
2022/04/17 08:28:58;;;;;;;7.38;5.78;;;20.30;99.90;;;;;;5056344;28;20430;-54
2022/04/17 08:31:24;;;;;;;7.28;5.80;;;20.20;99.90;;;;;;5055267;28;20417;-54
2022/04/17 08:33:50;;;;;;;8.40;5.53;;;20.40;99.90;;;;;;5054315;28;20414;-54
2022/04/17 08:36:15;;;;;;;8.60;6.03;;;21.10;99.90;;;;;;5059645;28;20404;-54
2022/04/17 08:38:44;;;;;;;7.88;6.10;;;21.60;99.90;;;;;;5060773;28;20439;-54
2022/04/17 08:41:12;;;;;;;7.00;5.50;;;21.30;99.90;;;;;;5057077;28;20407;-55
2022/04/17 08:43:37;;;;;;;9.98;5.45;;;21.20;99.90;;;;;;5059734;28;20404;-55
2022/04/17 08:46:03;;;;;;;8.13;5.40;;;21.70;99.90;;;;;;5058081;28;20394;-54
2022/04/17 08:48:32;;;;;;;7.30;5.57;;;22.20;99.90;;;;;;5055970;28;20401;-54
2022/04/17 08:50:58;;;;;;;7.95;5.40;;;21.90;99.90;;;;;;5054731;28;20426;-54
2022/04/17 08:53:25;;;;;;;7.25;5.30;;;21.10;99.90;;;;;;5060510;28;20425;-54
2022/04/17 08:55:51;;;;;;;6.90;5.18;;;21.70;99.90;;;;;;5059719;28;20413;-54
2022/04/17 08:58:18;;;;;;;7.57;5.20;;;;;;;;;;5063509;28;20403;-54
2022/04/17 09:00:43;;;;;;;6.78;5.03;;;22.40;99.90;;;;;;5059625;28;20562;-55
2022/04/17 09:03:10;;;;;;;7.60;5.47;;;22.20;46.40;;;;;;5053912;28;21133;-55
2022/04/17 09:05:40;;;;;;;7.15;4.70;;;21.90;12.00;;;;;;5057171;28;20466;-54
2022/04/17 09:08:16;;;;;;;6.60;4.80;;;21.90;64.10;;;;;;5062181;28;20419;-54
2022/04/17 09:10:55;;;;;;;6.75;4.70;;;22.10;13.20;;;;;;5061415;28;20411;-54
2022/04/17 09:13:34;;;;;;;7.82;5.50;;;;;;;;;;5059343;28;20422;-55
2022/04/17 09:16:04;;;;;;;6.80;5.28;;;;;;;;;;5054497;28;20389;-52
2022/04/17 09:18:31;;;;;;;5.90;4.30;;;24.00;99.90;;;;;;5057090;28;20743;-52
2022/04/17 09:20:58;;;;;;;6.55;5.32;;;24.60;1.00;;;;;;5058529;28;20514;-51
2022/04/17 09:23:40;;;;;;;7.68;2.30;;;24.80;1.00;;;;;;5076943;28;20443;-52
2022/04/17 09:26:07;;;;;;;7.33;5.83;;;25.00;1.00;;;;;;5077285;28;20391;-54
2022/04/17 09:28:37;;;;;;;6.50;4.83;;;25.40;38.50;;;;;;5083188;28;20386;-52
2022/04/17 09:31:13;;;;;;;8.40;5.93;;;25.10;1.00;;;;;;5084923;28;20747;-54
2022/04/17 09:33:49;;;;;;;9.25;5.70;;;23.10;1.00;;;;;;5081577;28;20479;-54
2022/04/17 09:36:15;;;;;;;7.05;4.93;;;23.60;1.00;;;;;;5081614;28;20473;-54
2022/04/17 09:38:40;;;;;;;6.43;5.13;;;24.20;1.00;;;;;;5083938;28;20843;-54
2022/04/17 09:41:10;;;;;;;6.87;5.43;;;24.40;1.00;;;;;;5085211;28;20479;-52
2022/04/17 09:43:36;;;;;;;7.63;5.32;;;25.20;1.00;;;;;;5086533;28;20382;-54
2022/04/17 09:46:09;;;;;;;10.50;9.00;;;26.00;1.00;;;;;;5078906;28;20399;-54
2022/04/17 09:48:39;;;;;;;9.38;6.68;;;26.10;1.00;;;;;;5082465;28;20398;-54
2022/04/17 09:51:27;;;;;;;8.30;7.50;;;26.30;1.00;;;;;;5070973;28;20506;-55
2022/04/17 09:54:06;;;;;;;7.20;5.90;;;26.20;1.00;;;;;;5077101;28;20441;-54
2022/04/17 09:56:43;;;;;;;7.50;5.53;;;25.70;1.00;;;;;;5086818;28;20393;-54
2022/04/17 09:59:18;;;;;;;6.70;5.53;;;24.20;1.00;;;;;;5087039;28;20397;-54
2022/04/17 10:01:49;;;;;;;7.70;5.57;;;24.30;1.00;;;;;;5086755;28;20390;-57
2022/04/17 10:04:19;;;;;;;8.40;5.47;;;23.50;1.00;;;;;;5079874;28;20398;-54
2022/04/17 10:06:49;;;;;;;6.90;5.30;;;23.70;1.00;;;;;;5081034;28;20418;-54
2022/04/17 10:09:16;;;;;;;9.23;5.57;;;24.00;1.00;;;;;;5072578;28;20394;-54
2022/04/17 10:11:41;;;;;;;8.30;5.70;;;24.10;1.00;;;;;;5081427;28;20444;-54
2022/04/17 10:14:08;;;;;;;8.50;5.20;;;23.50;1.00;;;;;;5084202;28;20544;-54
2022/04/17 10:16:34;;;;;;;6.60;5.07;;;22.90;1.00;;;;;;5087623;28;20482;-54
2022/04/17 10:19:05;;;;;;;7.25;4.65;;;22.90;1.00;;;;;;5084207;28;20398;-54
2022/04/17 10:21:34;;;;;;;7.10;5.10;;;23.10;1.00;;;;;;5076863;28;20561;-54
2022/04/17 10:24:04;;;;;;;7.10;4.70;;;23.30;1.00;;;;;;5064409;28;20428;-54
2022/04/17 10:26:34;;;;;;;7.72;5.13;;;23.30;1.00;;;;;;5061636;28;20404;-54
2022/04/17 10:29:04;;;;;;;6.60;5.10;;;22.80;1.00;;;;;;5063119;28;20446;-54
2022/04/17 10:32:02;;;;;;;6.68;4.80;;;23.10;1.00;;;;;;5064642;28;20958;-55
2022/04/17 10:34:36;;;;;;;6.97;5.70;;;21.60;1.00;;;;;;5040748;28;20758;-54
2022/04/17 10:37:40;;;;;;;8.02;5.20;;;21.10;1.00;;;;;;5069947;28;20380;-54
2022/04/17 10:40:10;;;;;;;6.40;4.70;;;21.30;1.00;;;;;;5070049;28;20376;-55
2022/04/17 10:42:52;;;;;;;7.10;4.50;;;20.30;1.00;;;;;;5052327;28;20396;-55
2022/04/17 10:45:18;;;;;;;7.20;5.00;;;19.90;99.90;;;;;;5070017;28;20383;-53
2022/04/17 10:48:09;;;;;;;7.25;4.90;;;19.50;99.90;;;;;;5064179;28;20393;-54
2022/04/17 10:50:50;;;;;;;8.07;5.13;;;19.20;99.90;;;;;;5050735;28;20812;-55
2022/04/17 10:53:28;;;;;;;7.00;5.33;;;18.60;99.90;;;;;;5049787;28;20397;-54
2022/04/17 10:56:10;;;;;;;6.80;5.70;;;18.10;99.90;;;;;;5049925;28;20397;-54
2022/04/17 10:58:44;;;;;;;8.60;6.00;;;18.30;99.90;;;;;;5050460;28;20855;-55
2022/04/17 11:01:11;;;;;;;7.00;5.30;;;18.60;99.90;;;;;;5049583;28;20897;-52
2022/04/17 11:03:38;;;;;;;7.28;4.90;;;19.10;99.90;;;;;;5050288;28;20402;-55
2022/04/17 11:06:33;;;;;;;6.60;4.57;;;18.70;99.90;;;;;;5032041;28;20441;-54
2022/04/17 11:09:24;;;;;;;6.60;4.63;;;18.80;99.90;;;;;;5049530;28;20392;-52
2022/04/17 11:11:51;;;;;;;6.32;4.95;;;19.40;99.90;;;;;;5050352;28;20920;-52
2022/04/17 11:14:19;;;;;;;7.17;5.10;;;18.70;99.90;;;;;;5060835;28;20396;-54
2022/04/17 11:16:53;;;;;;;7.45;5.05;;;17.80;99.90;;;;;;5070531;28;20841;-55
2022/04/17 11:19:22;;;;;;;7.70;5.40;;;17.70;99.90;;;;;;5069551;28;20399;-54
2022/04/17 11:21:50;;;;;;;6.63;5.00;;;17.80;99.90;;;;;;5082719;28;20402;-55
2022/04/17 11:24:16;;;;;;;7.25;5.07;;;18.00;99.90;;;;;;5089499;28;20398;-55
2022/04/17 11:26:54;;;;;;;7.15;5.20;;;18.30;99.90;;;;;;5090269;28;20922;-55
2022/04/17 11:29:50;;;;;;;6.72;4.65;;;18.50;99.90;;;;;;5088166;28;20391;-52
2022/04/17 11:32:19;;;;;;;6.03;4.03;;;18.80;99.90;;;;;;5089465;28;20390;-54
2022/04/17 11:34:52;;;;;;;8.27;3.92;;;18.10;99.90;;;;;;5089384;28;20786;-54
2022/04/17 11:37:24;;;;;;;6.30;3.40;;;17.90;99.90;;;;;;5082643;28;20400;-54
2022/04/17 11:39:51;;;;;;;6.82;3.13;;;17.80;99.90;;;;;;5037148;28;20452;-54
2022/04/17 11:42:18;;;;;;;5.70;2.80;;;17.90;99.90;;;;;;5071340;28;20389;-55
2022/04/17 11:44:45;;;;;;;6.57;3.73;;;18.20;99.90;;;;;;5090266;28;20453;-54
2022/04/17 11:47:15;;;;;;;6.60;4.17;;;18.60;99.90;;;;;;5089198;28;20393;-54
2022/04/17 11:49:46;;;;;;;6.65;3.33;;;18.20;99.90;;;;;;5089959;28;20423;-54
2022/04/17 11:52:13;;;;;;;6.60;3.40;;;18.00;99.90;;;;;;5071424;28;20410;-54
2022/04/17 11:54:39;;;;;;;7.00;3.30;;;17.90;99.90;;;;;;5089996;28;20859;-54
2022/04/17 11:57:06;;;;;;;8.93;3.03;;;18.20;99.90;;;;;;5070820;28;20404;-54
2022/04/17 11:59:49;;;;;;;8.70;4.00;;;18.20;99.90;;;;;;5089930;28;20382;-54
2022/04/17 12:02:17;;;;;;;6.40;3.67;;;18.20;99.90;;;;;;5089001;28;20378;-54
2022/04/17 12:04:44;;;;;;;6.40;3.90;;;18.40;99.90;;;;;;5089995;28;20745;-54
2022/04/17 12:07:10;;;;;;;7.60;3.70;;;18.00;99.90;;;;;;5089219;28;20378;-54
2022/04/17 12:09:36;;;;;;;7.40;4.13;;;18.00;99.90;;;;;;5089853;28;20433;-54
2022/04/17 12:12:08;;;;;;;6.78;3.60;;;18.00;99.90;;;;;;5088884;28;20906;-54
2022/04/17 12:14:34;;;;;;;6.30;3.70;;;18.00;99.90;;;;;;5089701;28;20378;-54
2022/04/17 12:17:00;;;;;;;6.33;3.47;;;18.20;99.90;;;;;;5089087;28;20378;-54
2022/04/17 12:19:25;;;;;;;6.37;3.30;;;18.20;99.90;;;;;;5089551;28;20431;-54
2022/04/17 12:21:52;;;;;;;6.47;4.10;;;18.40;99.90;;;;;;5089978;28;20398;-54
2022/04/17 12:24:18;;;;;;;6.40;3.00;;;18.10;99.90;;;;;;5089103;28;20378;-54
2022/04/17 12:26:45;;;;;;;6.50;3.40;;;17.50;99.90;;;;;;5089885;28;20382;-55
2022/04/17 12:29:11;;;;;;;5.85;3.33;;;17.50;99.90;;;;;;5088713;28;20473;-54
2022/04/17 12:31:37;;;;;;;5.80;3.30;;;17.50;99.90;;;;;;5089953;28;20489;-54
2022/04/17 12:34:19;;;;;;;5.75;3.13;;;17.40;99.90;;;;;;5070855;28;20830;-54
2022/04/17 12:36:49;;;;;;;6.80;3.40;;;17.80;99.90;;;;;;5089746;28;20469;-54
2022/04/17 12:39:15;;;;;;;6.57;3.25;;;18.00;99.90;;;;;;5089133;28;21083;-54
2022/04/17 12:41:42;;;;;;;6.07;4.33;;;17.90;99.90;;;;;;5072901;28;20384;-54
2022/04/17 12:44:09;;;;;;;6.25;3.50;;;17.90;99.90;;;;;;5068884;28;20506;-54
2022/04/17 12:46:44;;;;;;;6.20;4.20;;;18.20;99.90;;;;;;5069119;28;20379;-54
2022/04/17 12:49:15;;;;;;;6.65;3.13;;;18.30;99.90;;;;;;5052139;28;20849;-54
2022/04/17 12:51:54;;;;;;;6.80;3.17;;;18.20;99.90;;;;;;5069145;28;20422;-54
2022/04/17 12:54:19;;;;;;;5.28;3.15;;;18.30;99.90;;;;;;5069061;28;20384;-54
2022/04/17 12:56:47;;;;;;;6.03;2.53;;;18.00;99.90;;;;;;5069211;28;20383;-54
2022/04/17 12:59:18;;;;;;;6.53;4.00;;;17.70;99.90;;;;;;5068556;28;20386;-54
2022/04/17 13:01:48;;;;;;;5.78;3.60;;;17.10;99.90;;;;;;5069189;28;20444;-55
2022/04/17 13:04:19;;;;;;;6.28;3.30;;;16.70;99.90;;;;;;5068472;28;20459;-54
2022/04/17 13:06:46;;;;;;;6.20;3.10;;;16.60;99.90;;;;;;5069215;28;20387;-54
2022/04/17 13:09:21;;;;;;;5.50;3.40;;;17.00;99.90;;;;;;5068956;28;20384;-54
2022/04/17 13:11:53;;;;;;;6.38;4.03;;;17.20;99.90;;;;;;5072439;28;20855;-54